Terminal Aerodrome Forecast
Issued by NWS Raleigh/Durham, NC

Home | Current Version | Previous Version | Text Only | Print | Product List | Glossary On
Versions: 1 2 3 4 5 6 7 8 9 10 11 12 13 14 15 16 17 18 19 20 21 22 23 24 25
000
FTUS42 KRAH 291738
TAFFAY
TAF
KFAY 291738Z 2918/3018 13010KT P6SM VCSH BKN017
      TEMPO 2919/2923 VRB15G30KT 4SM TSRA SCT020 BKN040CB
     FM292300 13006KT 5SM BR VCTS BKN025CB
     FM300500 12006KT P6SM SCT007 BKN250
     FM300800 13005KT 3SM BR BKN005 BKN250
      TEMPO 3008/3012 2SM BR OVC002
     FM301300 13004KT P6SM SCT025 BKN250=

USA.gov is the U.S. government's official web portal to all federal, state and local government web resources and services.